Grande Europa — ICGE — position and weather

sailwx.info

Track history (hours):
 
Tides and Currents Weather Stations Pressure Air Temp Water Temp Dewpoint Dewpoint Depression Visibility Wind Speed Wind Dir Waves Ship Positions

Grande Europa

Last reported at 2015-Feb-28 13:33 UTC. Time now 2015-Feb-28 13:56 UTC.
Position N 37°35' E 023°45'.

Length 183 m; draft 9 m.

Type: Cargo ship. MMSI: 247206000.

Date/timePositionNaut miles runAvg speedWind from/ knotsBaromVisibWave heightAir tempDewpointWater temp
2015-Feb-28 13:33N 37°35' E 023°45'45513.0
2015-Feb-27 02:33N 40°29' E 014°44'8 0.6
2015-Feb-26 14:25N 40°35' E 014°37'1517.5
2015-Feb-26 13:34N 40°29' E 014°18'1717.3
2015-Feb-26 12:33N 40°22' E 013°57'1717.1
2015-Feb-26 11:32N 40°16' E 013°36'21516.4
2015-Feb-25 22:27N 38°38' E 009°29'1715.7
2015-Feb-25 21:21N 38°30' E 009°09'2015.6
2015-Feb-25 20:04N 38°22' E 008°46'914.6
2015-Feb-25 19:25N 38°18' E 008°35'1112.8
2015-Feb-25 18:33N 38°15' E 008°21'21013.1
2015-Feb-25 02:28N 39°00' E 003°59'1617.3
2015-Feb-25 01:33N 39°01' E 003°38'1817.6
2015-Feb-25 00:33N 39°03' E 003°16'1716.9
2015-Feb-24 23:33N 39°04' E 002°54'1616.4
2015-Feb-24 22:33N 39°06' E 002°33'1616.0
2015-Feb-24 21:33N 39°09' E 002°13'1616.4
2015-Feb-24 20:33N 39°11' E 001°52'1717.3
2015-Feb-24 19:33N 39°13' E 001°30'1817.6
2015-Feb-24 18:33N 39°15' E 001°07'6017.8
2015-Feb-24 15:10N 39°24' W 000°10'711.4
2015-Feb-24 14:34N 39°27' W 000°18'0 0.0
2015-Feb-24 13:33N 39°27' W 000°18'0 0.0
2015-Feb-24 12:33N 39°27' W 000°18'0 0.0
2015-Feb-24 11:33N 39°27' W 000°18'0 0.0
2015-Feb-24 10:30N 39°27' W 000°18'0 0.0
2015-Feb-24 09:33N 39°27' W 000°18'0 0.0
2015-Feb-24 08:33N 39°27' W 000°18'0 0.0
2015-Feb-24 07:33N 39°27' W 000°18'6 5.5
2015-Feb-24 06:31N 39°23' W 000°12'8313.6
2015-Feb-24 00:27N 38°01' W 000°06'1617.3
2015-Feb-23 23:33N 37°48' W 000°18'1717.3
2015-Feb-23 22:33N 37°34' W 000°30'1716.9
2015-Feb-23 21:33N 37°22' W 000°46'1817.9
2015-Feb-23 20:33N 37°11' W 001°02'21117.1
2015-Feb-23 08:14N 35°60' W 005°09'1421.0
2015-Feb-23 07:33N 35°58' W 005°27'25315.8
2015-Feb-22 15:32N 38°09' W 009°58'1717.7
2015-Feb-22 14:33N 38°26' W 010°03'1818.1
2015-Feb-22 13:33N 38°44' W 010°07'1917.6
2015-Feb-22 12:28N 39°03' W 010°06'1617.7
2015-Feb-22 11:33N 39°19' W 010°06'74015.7
2015-Feb-20 12:22N 50°14' W 002°01'3016.6
2015-Feb-20 10:33N 50°28' W 001°19'1413.9
2015-Feb-20 09:34N 50°35' W 001°00'1111.4
2015-Feb-20 08:33N 50°45' W 001°07'1212.3
2015-Feb-20 07:33N 50°52' W 001°23'2 0.6
2015-Feb-20 03:32N 50°54' W 001°25'0 0.0
2015-Feb-20 01:08N 50°54' W 001°25'0 0.0
2015-Feb-20 00:05N 50°54' W 001°25'0 0.0
2015-Feb-19 22:29N 50°54' W 001°25'0 0.0
2015-Feb-19 21:26N 50°54' W 001°25'0 0.0
2015-Feb-19 19:26N 50°54' W 001°25'0 0.0
2015-Feb-19 18:29N 50°54' W 001°25'0 0.0
2015-Feb-19 17:29N 50°54' W 001°25'0 0.0
2015-Feb-19 16:32N 50°54' W 001°25'0 0.0
2015-Feb-19 15:17N 50°54' W 001°25'2 2.9
2015-Feb-19 14:33N 50°53' W 001°23'10 9.8
2015-Feb-19 13:33N 50°46' W 001°12'1413.6
2015-Feb-19 12:33N 50°39' W 000°54'6 5.7
2015-Feb-19 11:33N 50°37' W 000°45'2 1.6
2015-Feb-19 10:33N 50°35' W 000°44'1413.8
2015-Feb-19 09:33N 50°29' W 000°25'1514.1
2015-Feb-19 08:28N 50°29' W 000°01'1314.0
2015-Feb-19 07:33N 50°33' E 000°18'1515.3
2015-Feb-19 06:33N 50°40' E 000°40'1716.7
2015-Feb-19 05:33N 50°49' E 001°02'1717.1
2015-Feb-19 04:33N 51°01' E 001°21'1616.1
2015-Feb-19 03:34N 51°11' E 001°41'1515.3
2015-Feb-19 02:34N 51°23' E 001°57'1514.6
2015-Feb-19 01:33N 51°21' E 002°20'1514.9
2015-Feb-19 00:34N 51°22' E 002°43'1414.1
2015-Feb-18 23:33N 51°24' E 003°06'1414.5
2015-Feb-18 22:33N 51°25' E 003°29'1010.0
2015-Feb-18 21:34N 51°22' E 003°44'1111.3
2015-Feb-18 20:34N 51°25' E 004°02'1211.7
2015-Feb-18 19:34N 51°18' E 004°18'2 2.1
2015-Feb-18 18:33N 51°16' E 004°17'1 1.4
2015-Feb-18 17:33N 51°16' E 004°15'1 1.2
2015-Feb-18 16:31N 51°16' E 004°13'0 0.0
2015-Feb-18 15:31N 51°16' E 004°13'0 0.0
2015-Feb-18 14:31N 51°16' E 004°13'  
Track history (hours):
 
Tides and Currents Weather Stations Pressure Air Temp Water Temp Dewpoint Dewpoint Depression Visibility Wind Speed Wind Dir Waves Ship Positions

Grande Europa

Last reported at 2015-Feb-28 13:33 UTC. Time now 2015-Feb-28 13:56 UTC.
Position N 37°35' E 023°45'.

Length 183 m; draft 9 m.

Type: Cargo ship. MMSI: 247206000.

Date/timePositionNaut miles runAvg speedWind from/ knotsBaromVisibWave heightAir tempDewpointWater temp
2015-Feb-28 13:33N 37°35' E 023°45'45513.0
2015-Feb-27 02:33N 40°29' E 014°44'8 0.6
2015-Feb-26 14:25N 40°35' E 014°37'1517.5
2015-Feb-26 13:34N 40°29' E 014°18'1717.3
2015-Feb-26 12:33N 40°22' E 013°57'1717.1
2015-Feb-26 11:32N 40°16' E 013°36'21516.4
2015-Feb-25 22:27N 38°38' E 009°29'1715.7
2015-Feb-25 21:21N 38°30' E 009°09'2015.6
2015-Feb-25 20:04N 38°22' E 008°46'914.6
2015-Feb-25 19:25N 38°18' E 008°35'1112.8
2015-Feb-25 18:33N 38°15' E 008°21'21013.1
2015-Feb-25 02:28N 39°00' E 003°59'1617.3
2015-Feb-25 01:33N 39°01' E 003°38'1817.6
2015-Feb-25 00:33N 39°03' E 003°16'1716.9
2015-Feb-24 23:33N 39°04' E 002°54'1616.4
2015-Feb-24 22:33N 39°06' E 002°33'1616.0
2015-Feb-24 21:33N 39°09' E 002°13'1616.4
2015-Feb-24 20:33N 39°11' E 001°52'1717.3
2015-Feb-24 19:33N 39°13' E 001°30'1817.6
2015-Feb-24 18:33N 39°15' E 001°07'6017.8
2015-Feb-24 15:10N 39°24' W 000°10'711.4
2015-Feb-24 14:34N 39°27' W 000°18'0 0.0
2015-Feb-24 13:33N 39°27' W 000°18'0 0.0
2015-Feb-24 12:33N 39°27' W 000°18'0 0.0
2015-Feb-24 11:33N 39°27' W 000°18'0 0.0
2015-Feb-24 10:30N 39°27' W 000°18'0 0.0
2015-Feb-24 09:33N 39°27' W 000°18'0 0.0
2015-Feb-24 08:33N 39°27' W 000°18'0 0.0
2015-Feb-24 07:33N 39°27' W 000°18'6 5.5
2015-Feb-24 06:31N 39°23' W 000°12'8313.6
2015-Feb-24 00:27N 38°01' W 000°06'1617.3
2015-Feb-23 23:33N 37°48' W 000°18'1717.3
2015-Feb-23 22:33N 37°34' W 000°30'1716.9
2015-Feb-23 21:33N 37°22' W 000°46'1817.9
2015-Feb-23 20:33N 37°11' W 001°02'21117.1
2015-Feb-23 08:14N 35°60' W 005°09'1421.0
2015-Feb-23 07:33N 35°58' W 005°27'25315.8
2015-Feb-22 15:32N 38°09' W 009°58'1717.7
2015-Feb-22 14:33N 38°26' W 010°03'1818.1
2015-Feb-22 13:33N 38°44' W 010°07'1917.6
2015-Feb-22 12:28N 39°03' W 010°06'1617.7
2015-Feb-22 11:33N 39°19' W 010°06'74015.7
2015-Feb-20 12:22N 50°14' W 002°01'3016.6
2015-Feb-20 10:33N 50°28' W 001°19'1413.9
2015-Feb-20 09:34N 50°35' W 001°00'1111.4
2015-Feb-20 08:33N 50°45' W 001°07'1212.3
2015-Feb-20 07:33N 50°52' W 001°23'2 0.6
2015-Feb-20 03:32N 50°54' W 001°25'0 0.0
2015-Feb-20 01:08N 50°54' W 001°25'0 0.0
2015-Feb-20 00:05N 50°54' W 001°25'0 0.0
2015-Feb-19 22:29N 50°54' W 001°25'0 0.0
2015-Feb-19 21:26N 50°54' W 001°25'0 0.0
2015-Feb-19 19:26N 50°54' W 001°25'0 0.0
2015-Feb-19 18:29N 50°54' W 001°25'0 0.0
2015-Feb-19 17:29N 50°54' W 001°25'0 0.0
2015-Feb-19 16:32N 50°54' W 001°25'0 0.0
2015-Feb-19 15:17N 50°54' W 001°25'2 2.9
2015-Feb-19 14:33N 50°53' W 001°23'10 9.8
2015-Feb-19 13:33N 50°46' W 001°12'1413.6
2015-Feb-19 12:33N 50°39' W 000°54'6 5.7
2015-Feb-19 11:33N 50°37' W 000°45'2 1.6
2015-Feb-19 10:33N 50°35' W 000°44'1413.8
2015-Feb-19 09:33N 50°29' W 000°25'1514.1
2015-Feb-19 08:28N 50°29' W 000°01'1314.0
2015-Feb-19 07:33N 50°33' E 000°18'1515.3
2015-Feb-19 06:33N 50°40' E 000°40'1716.7
2015-Feb-19 05:33N 50°49' E 001°02'1717.1
2015-Feb-19 04:33N 51°01' E 001°21'1616.1
2015-Feb-19 03:34N 51°11' E 001°41'1515.3
2015-Feb-19 02:34N 51°23' E 001°57'1514.6
2015-Feb-19 01:33N 51°21' E 002°20'1514.9
2015-Feb-19 00:34N 51°22' E 002°43'1414.1
2015-Feb-18 23:33N 51°24' E 003°06'1414.5
2015-Feb-18 22:33N 51°25' E 003°29'1010.0
2015-Feb-18 21:34N 51°22' E 003°44'1111.3
2015-Feb-18 20:34N 51°25' E 004°02'1211.7
2015-Feb-18 19:34N 51°18' E 004°18'2 2.1
2015-Feb-18 18:33N 51°16' E 004°17'1 1.4
2015-Feb-18 17:33N 51°16' E 004°15'1 1.2
2015-Feb-18 16:31N 51°16' E 004°13'0 0.0
2015-Feb-18 15:31N 51°16' E 004°13'0 0.0
2015-Feb-18 14:31N 51°16' E 004°13'  

Dump ship's entire track history